Newnan, GA (30263)

7:21 AM EST on February 12, 2016 (GMT -0500)
Featherston Heights | | Change Station
CLOSE
Current Station
Personal Weather Station
Location: Newnan, GA
Elevation: 1017 ft
Nearby Weather Stations

Elev 1017 ft 33.39 °N, 84.81 °W | Updated 26 seconds ago

Clear
Clear
35.4 °F
Feels Like 33 °F
N
3.2
Wind Variable Wind from SSE

Today
High -- | Low -- °F
--% Chance of Precip.
Yesterday
High -- | Low -- °F
Precip. -- in
Pressure 30.15 in
Visibility 10.0 miles
Clouds Clear
Windchill 33 °F
Dew Point 30 °F
Humidity 79%
Rainfall 0.00 in
Snow Depth Not available.
7:26 AM 6:21 PM
Waxing Crescent, 20% visible
METAR KFFC 121153Z AUTO 00000KT 10SM CLR 01/00 A3013 RMK AO2 SLP210 T00110000 10017 20000 58001
Pressure 30.15 in
Visibility 10.0 miles
Clouds Clear
Windchill 33 °F
Dew Point 30 °F
Humidity 79%
Rainfall 0.00 in
Snow Depth Not available.
7:26 AM 6:21 PM
Waxing Crescent, 20% visible
METAR KFFC 121153Z AUTO 00000KT 10SM CLR 01/00 A3013 RMK AO2 SLP210 T00110000 10017 20000 58001

10-Day Weather Forecast

Almanac

Astronomy

Feb. 12, 2016 Rise Set
Actual Time
Civil Twilight
Nautical Twilight
Astronomical Twilight
Moon
Length of Visible Light
Length of Day
Tomorrow will be .
, % of the Moon is Illuminated

Today's Extremes

State Highs State Lows

Community

WunderPhotos

Upload Photos

1,892,295 photos uploaded!

WunderBlog® & News

Nearby

Air Quality

  Air Quality AQ Index Pollutant
Not available.

Snow Depth

Station Depth Elevation

Earthquake Activity

City Distance Mag. Time & Date
Minimum magnitude displayed is 2.5.

Coastal Water Temperatures

Place Temperature

Stations

Nearby Weather Stations

Station Location Temp. Windchill Dew Point Humidity Wind Precip. Elev Updated Type
                   

Watches & Warnings

There are currently no watches in effect.